createdAt,value
2018-05-12T00:00:05.992Z,11.60
2018-05-12T00:01:08.461Z,6.13
2018-05-12T00:02:10.969Z,7.93
2018-05-12T00:03:13.473Z,9.83
2018-05-12T00:04:15.951Z,2.63
2018-05-12T00:05:18.457Z,5.10
2018-05-12T00:06:20.941Z,6.57
2018-05-12T00:07:23.431Z,4.03
2018-05-12T00:08:25.991Z,8.13
2018-05-12T00:09:28.499Z,3.80
2018-05-12T00:10:31.001Z,14.13
2018-05-12T00:11:33.493Z,3.53
2018-05-12T00:12:36.035Z,5.93
2018-05-12T00:13:38.591Z,5.00
2018-05-12T00:14:41.096Z,6.83
2018-05-12T00:15:43.612Z,5.10
2018-05-12T00:16:46.107Z,5.03
2018-05-12T00:17:48.594Z,4.00
2018-05-12T00:18:51.085Z,7.23
2018-05-12T00:19:53.574Z,5.77
2018-05-12T00:20:56.060Z,5.50
2018-05-12T00:21:58.531Z,8.20
2018-05-12T00:23:01.038Z,6.43
2018-05-12T00:24:03.535Z,4.00
2018-05-12T00:25:06.040Z,5.90
2018-05-12T00:26:08.540Z,3.00
2018-05-12T00:27:11.023Z,4.73
2018-05-12T00:28:13.535Z,5.47
2018-05-12T00:29:16.043Z,2.73
2018-05-12T00:30:18.535Z,3.53
2018-05-12T00:31:21.025Z,3.43
2018-05-12T00:32:23.503Z,5.67
2018-05-12T00:33:26.006Z,4.33
2018-05-12T00:34:28.489Z,6.83
2018-05-12T00:35:30.976Z,6.03
2018-05-12T00:36:33.466Z,7.63
2018-05-12T00:37:35.953Z,4.70
2018-05-12T00:38:38.501Z,4.50
2018-05-12T00:39:41.060Z,3.87
2018-05-12T00:40:43.624Z,5.80
2018-05-12T00:41:46.113Z,3.63
2018-05-12T00:42:48.618Z,9.50
2018-05-12T00:43:51.167Z,3.20
2018-05-12T00:44:53.656Z,2.20
2018-05-12T00:45:56.152Z,5.73
2018-05-12T00:46:58.659Z,6.50
2018-05-12T00:48:01.168Z,3.47
2018-05-12T00:49:03.666Z,7.43
2018-05-12T00:50:06.241Z,3.90
2018-05-12T00:51:08.767Z,2.90
2018-05-12T00:52:11.224Z,7.83
2018-05-12T00:53:13.714Z,4.70
2018-05-12T00:54:16.236Z,9.17
2018-05-12T00:55:18.730Z,7.90
2018-05-12T00:56:21.210Z,9.23
2018-05-12T00:57:23.716Z,4.97
2018-05-12T00:58:26.210Z,4.30
2018-05-12T00:59:28.718Z,8.80
2018-05-12T01:00:31.220Z,4.47
2018-05-12T01:01:33.778Z,6.93
2018-05-12T01:02:36.255Z,11.40
2018-05-12T01:03:38.755Z,5.20
2018-05-12T01:04:41.265Z,11.00
2018-05-12T01:05:43.749Z,5.90
2018-05-12T01:06:46.297Z,5.63
2018-05-12T01:07:48.775Z,10.67
2018-05-12T01:08:51.251Z,5.50
2018-05-12T01:09:53.872Z,6.13
2018-05-12T01:10:56.430Z,6.90
2018-05-12T01:11:58.927Z,14.17
2018-05-12T01:13:01.448Z,7.73
2018-05-12T01:14:03.927Z,14.60
2018-05-12T01:15:06.452Z,5.80
2018-05-12T01:16:08.937Z,7.30
2018-05-12T01:17:11.427Z,7.23
2018-05-12T01:18:13.936Z,7.20
2018-05-12T01:19:16.447Z,5.60
2018-05-12T01:20:18.975Z,3.50
2018-05-12T01:21:21.483Z,6.13
2018-05-12T01:22:23.974Z,9.33
2018-05-12T01:23:26.449Z,6.30
2018-05-12T01:24:28.936Z,18.73
2018-05-12T01:25:31.450Z,6.70
2018-05-12T01:26:33.959Z,6.70
2018-05-12T01:27:36.438Z,12.30
2018-05-12T01:28:38.931Z,4.03
2018-05-12T01:29:41.431Z,4.70
2018-05-12T01:30:43.926Z,6.70
2018-05-12T01:31:46.414Z,5.23
2018-05-12T01:32:48.905Z,7.67
2018-05-12T01:33:51.381Z,5.43
2018-05-12T01:34:53.873Z,4.30
2018-05-12T01:35:56.402Z,2.83
2018-05-12T01:36:58.911Z,7.57
2018-05-12T01:38:01.401Z,6.23
2018-05-12T01:39:03.902Z,5.27
2018-05-12T01:40:06.397Z,4.40
2018-05-12T01:41:08.918Z,9.20
2018-05-12T01:42:11.492Z,6.83
2018-05-12T01:43:14.053Z,8.87
2018-05-12T01:44:16.527Z,10.37
2018-05-12T01:45:19.003Z,8.37
2018-05-12T01:46:21.516Z,4.00
2018-05-12T01:47:24.088Z,9.13
2018-05-12T01:48:26.647Z,10.77
2018-05-12T01:49:29.207Z,5.10
2018-05-12T01:50:31.714Z,6.63
2018-05-12T01:51:34.229Z,8.50
2018-05-12T01:52:36.698Z,6.00
2018-05-12T01:53:39.168Z,7.40
2018-05-12T01:54:41.638Z,10.60
2018-05-12T01:55:44.143Z,5.43
2018-05-12T01:56:46.671Z,4.50
2018-05-12T01:57:49.157Z,5.10
2018-05-12T01:58:51.651Z,7.60
2018-05-12T01:59:54.142Z,6.57
2018-05-12T02:00:56.610Z,6.20
2018-05-12T02:01:59.131Z,2.63
2018-05-12T02:03:01.607Z,3.50
2018-05-12T02:04:04.232Z,4.80
2018-05-12T02:05:06.727Z,7.80
2018-05-12T02:06:09.212Z,3.57
2018-05-12T02:07:11.705Z,10.10
2018-05-12T02:08:14.188Z,4.37
2018-05-12T02:09:16.698Z,4.60
2018-05-12T02:10:19.267Z,4.83
2018-05-12T02:11:21.784Z,5.47
2018-05-12T02:12:24.314Z,4.50
2018-05-12T02:13:26.864Z,3.83
2018-05-12T02:14:29.363Z,3.10
2018-05-12T02:15:31.878Z,2.63
2018-05-12T02:16:34.346Z,5.93
2018-05-12T02:17:36.898Z,9.17
2018-05-12T02:18:39.381Z,3.60
2018-05-12T02:19:41.891Z,5.03
2018-05-12T02:20:44.421Z,5.00
2018-05-12T02:21:46.878Z,6.10
2018-05-12T02:22:49.366Z,4.43
2018-05-12T02:23:51.848Z,4.53
2018-05-12T02:24:54.355Z,2.80
2018-05-12T02:25:56.830Z,4.70
2018-05-12T02:26:59.313Z,6.57
2018-05-12T02:28:01.822Z,6.63
2018-05-12T02:29:04.291Z,3.70
2018-05-12T02:30:06.804Z,4.20
2018-05-12T02:31:09.298Z,8.13
2018-05-12T02:32:11.819Z,9.33
2018-05-12T02:33:14.384Z,4.87
2018-05-12T02:34:16.940Z,5.70
2018-05-12T02:35:19.499Z,5.67
2018-05-12T02:36:21.995Z,6.60
2018-05-12T02:37:24.503Z,13.17
2018-05-12T02:38:27.029Z,2.30
2018-05-12T02:39:29.542Z,2.90
2018-05-12T02:40:32.019Z,10.73
2018-05-12T02:41:34.511Z,8.03
2018-05-12T02:42:37.113Z,6.33
2018-05-12T02:43:39.605Z,3.27
2018-05-12T02:44:42.101Z,5.67
2018-05-12T02:45:44.579Z,13.30
2018-05-12T02:46:47.071Z,3.17
2018-05-12T02:47:49.590Z,9.23
2018-05-12T02:48:52.072Z,5.17
2018-05-12T02:49:54.567Z,4.70
2018-05-12T02:50:57.069Z,6.70
2018-05-12T02:51:59.570Z,8.40
2018-05-12T02:53:02.098Z,5.83
2018-05-12T02:54:04.605Z,10.87
2018-05-12T02:55:07.097Z,5.10
2018-05-12T02:56:09.601Z,6.63
2018-05-12T02:57:12.093Z,10.30
2018-05-12T02:58:14.610Z,3.87
2018-05-12T02:59:17.102Z,6.67
2018-05-12T03:00:19.612Z,7.77
2018-05-12T03:01:22.172Z,7.17
2018-05-12T03:02:24.673Z,4.50
2018-05-12T03:03:27.184Z,4.70
2018-05-12T03:04:29.666Z,4.07
2018-05-12T03:05:32.166Z,3.10
2018-05-12T03:06:34.970Z,4.17
2018-05-12T03:07:37.837Z,9.30
2018-05-12T03:08:40.707Z,6.50
2018-05-12T03:09:43.243Z,8.70
2018-05-12T03:10:45.719Z,5.30
2018-05-12T03:11:48.206Z,3.40
2018-05-12T03:12:50.683Z,4.63
2018-05-12T03:13:53.201Z,6.20
2018-05-12T03:14:55.694Z,3.60
2018-05-12T03:15:58.187Z,6.63
2018-05-12T03:17:00.685Z,3.47
2018-05-12T03:18:03.200Z,8.70
2018-05-12T03:19:05.690Z,5.90
2018-05-12T03:20:08.167Z,5.83
2018-05-12T03:21:10.656Z,5.27
2018-05-12T03:22:13.145Z,4.30
2018-05-12T03:23:15.619Z,1.83
2018-05-12T03:24:18.130Z,6.67
2018-05-12T03:25:20.616Z,3.10
2018-05-12T03:26:23.112Z,5.80
2018-05-12T03:27:25.639Z,8.43
2018-05-12T03:28:28.094Z,2.63
2018-05-12T03:29:30.600Z,4.60
2018-05-12T03:30:33.090Z,4.60
2018-05-12T03:31:35.565Z,5.33
2018-05-12T03:32:38.067Z,5.37
2018-05-12T03:33:40.611Z,3.37
2018-05-12T03:34:43.098Z,8.70
2018-05-12T03:35:45.597Z,5.10
2018-05-12T03:36:48.083Z,4.47
2018-05-12T03:37:50.565Z,7.67
2018-05-12T03:38:53.210Z,5.13
2018-05-12T03:39:55.707Z,4.47
2018-05-12T03:40:58.215Z,5.90
2018-05-12T03:42:00.700Z,5.60
2018-05-12T03:43:03.185Z,5.30
2018-05-12T03:44:05.662Z,4.07
2018-05-12T03:45:08.201Z,4.00
2018-05-12T03:46:10.693Z,2.73
2018-05-12T03:47:13.203Z,4.07
2018-05-12T03:48:15.696Z,9.17
2018-05-12T03:49:18.197Z,8.20
2018-05-12T03:50:20.693Z,4.10
2018-05-12T03:51:23.162Z,4.27
2018-05-12T03:52:25.642Z,7.50
2018-05-12T03:53:28.139Z,4.50
2018-05-12T03:54:30.653Z,4.70
2018-05-12T03:55:33.142Z,6.20
2018-05-12T03:56:35.632Z,15.03
2018-05-12T03:57:38.103Z,2.13
2018-05-12T03:58:40.603Z,4.77
2018-05-12T03:59:43.123Z,4.90
2018-05-12T04:00:45.617Z,3.67
2018-05-12T04:01:48.097Z,2.90
2018-05-12T04:02:50.599Z,7.10
2018-05-12T04:03:53.905Z,3.30
2018-05-12T04:05:08.372Z,3.57
2018-05-12T04:06:22.862Z,5.57
2018-05-12T04:07:37.182Z,6.00
2018-05-12T04:08:51.381Z,4.27
2018-05-12T04:11:38.348Z,4.20
2018-05-12T04:12:40.837Z,2.80
2018-05-12T04:13:43.324Z,5.53
2018-05-12T04:14:45.813Z,6.70
2018-05-12T04:15:48.418Z,11.10
2018-05-12T04:16:50.969Z,4.10
2018-05-12T04:17:53.461Z,4.43
2018-05-12T04:18:55.984Z,11.40
2018-05-12T04:19:58.542Z,16.70
2018-05-12T04:21:01.147Z,9.40
2018-05-12T04:22:03.562Z,9.93
2018-05-12T04:23:06.075Z,4.37
2018-05-12T04:24:08.574Z,3.17
2018-05-12T04:25:11.050Z,7.53
2018-05-12T04:26:13.599Z,4.90
2018-05-12T04:27:16.089Z,8.20
2018-05-12T04:28:18.558Z,5.40
2018-05-12T04:29:21.022Z,3.30
2018-05-12T04:30:23.509Z,7.63
2018-05-12T04:31:26.040Z,4.20
2018-05-12T04:32:28.525Z,6.73
2018-05-12T04:33:31.013Z,2.80
2018-05-12T04:34:33.523Z,8.03
2018-05-12T04:35:36.023Z,3.73
2018-05-12T04:36:38.529Z,4.20
2018-05-12T04:37:41.028Z,3.33
2018-05-12T04:38:43.544Z,7.47
2018-05-12T04:39:46.033Z,4.13
2018-05-12T04:40:48.502Z,4.93
2018-05-12T04:41:50.990Z,9.37
2018-05-12T04:42:53.485Z,3.20
2018-05-12T04:43:55.973Z,5.03
2018-05-12T04:44:58.465Z,3.20
2018-05-12T04:46:00.954Z,4.30
2018-05-12T04:47:03.467Z,9.27
2018-05-12T04:48:06.028Z,7.93
2018-05-12T04:49:08.518Z,6.80
2018-05-12T04:50:11.049Z,5.33
2018-05-12T04:51:13.555Z,5.07
2018-05-12T04:52:16.067Z,3.47
2018-05-12T04:53:18.575Z,4.97
2018-05-12T04:54:21.065Z,1.90
2018-05-12T04:55:23.553Z,3.07
2018-05-12T04:56:26.044Z,7.70
2018-05-12T04:57:28.558Z,4.93
2018-05-12T04:58:31.048Z,4.27
2018-05-12T04:59:33.542Z,5.63
2018-05-12T05:00:36.138Z,2.80
2018-05-12T05:01:38.648Z,5.47
2018-05-12T05:02:41.243Z,4.87
2018-05-12T05:03:43.695Z,4.83
2018-05-12T05:04:46.189Z,2.33
2018-05-12T05:05:48.658Z,5.13
2018-05-12T05:06:51.192Z,6.33
2018-05-12T05:07:53.697Z,4.57
2018-05-12T05:08:56.208Z,5.30
2018-05-12T05:09:58.679Z,3.53
2018-05-12T05:11:01.153Z,6.23
2018-05-12T05:12:03.633Z,5.07
2018-05-12T05:13:06.122Z,7.80
2018-05-12T05:14:08.609Z,3.90
2018-05-12T05:15:11.104Z,3.33
2018-05-12T05:16:13.616Z,12.03
2018-05-12T05:17:16.179Z,4.80
2018-05-12T05:18:18.703Z,5.33
2018-05-12T05:19:21.188Z,6.13
2018-05-12T05:20:23.681Z,10.60
2018-05-12T05:21:26.173Z,5.00
2018-05-12T05:22:28.647Z,5.37
2018-05-12T05:23:31.159Z,4.20
2018-05-12T05:24:33.735Z,9.50
2018-05-12T05:25:36.237Z,4.60
2018-05-12T05:26:38.785Z,10.70
2018-05-12T05:27:41.291Z,7.90
2018-05-12T05:28:43.797Z,12.10
2018-05-12T05:29:46.292Z,4.60
2018-05-12T05:30:48.797Z,7.60
2018-05-12T05:31:51.277Z,16.57
2018-05-12T05:32:53.817Z,11.70
2018-05-12T05:33:56.349Z,11.77
2018-05-12T05:34:58.836Z,7.60
2018-05-12T05:36:01.319Z,7.30
2018-05-12T05:37:03.848Z,14.87
2018-05-12T05:38:06.540Z,10.83
2018-05-12T05:39:09.112Z,6.77
2018-05-12T05:40:11.662Z,8.50
2018-05-12T05:41:14.130Z,8.03
2018-05-12T05:42:16.639Z,5.40
2018-05-12T05:44:28.166Z,10.23
2018-05-12T05:45:30.669Z,7.63
2018-05-12T05:46:33.169Z,9.70
2018-05-12T05:47:35.853Z,6.37
2018-05-12T05:48:38.416Z,5.27
2018-05-12T05:49:41.107Z,4.57
2018-05-12T05:50:43.736Z,7.40
2018-05-12T05:51:46.241Z,8.87
2018-05-12T05:52:48.772Z,4.67
2018-05-12T05:53:51.415Z,9.00
2018-05-12T05:54:53.971Z,11.13
2018-05-12T05:55:56.533Z,4.97
2018-05-12T05:56:59.016Z,6.70
2018-05-12T05:58:01.550Z,10.00
2018-05-12T05:59:04.115Z,11.30
2018-05-12T06:00:06.670Z,10.00
2018-05-12T06:01:09.161Z,7.20
2018-05-12T06:02:11.692Z,8.03
2018-05-12T06:03:14.181Z,7.27
2018-05-12T06:04:16.693Z,10.03
2018-05-12T06:05:19.178Z,6.83
2018-05-12T06:06:21.689Z,9.53
2018-05-12T06:07:24.195Z,5.70
2018-05-12T06:09:35.448Z,10.00
2018-05-12T06:10:37.923Z,8.17
2018-05-12T06:11:40.569Z,8.33
2018-05-12T06:12:43.106Z,7.70
2018-05-12T06:13:45.610Z,5.77
2018-05-12T06:14:48.123Z,11.93
2018-05-12T06:15:50.707Z,30.53
2018-05-12T06:16:53.263Z,11.57
2018-05-12T06:17:55.791Z,18.70
2018-05-12T06:18:58.274Z,13.20
2018-05-12T06:20:00.784Z,8.83
2018-05-12T06:21:03.258Z,8.60
2018-05-12T06:22:05.735Z,10.53
2018-05-12T06:23:08.228Z,13.03
2018-05-12T06:24:10.707Z,13.77
2018-05-12T06:25:13.336Z,13.33
2018-05-12T06:26:15.832Z,12.47
2018-05-12T06:27:18.303Z,8.67
2018-05-12T06:28:20.780Z,17.43
2018-05-12T06:29:23.258Z,9.77
2018-05-12T06:30:25.820Z,10.93
2018-05-12T06:31:28.299Z,7.80
2018-05-12T06:32:30.793Z,7.50
2018-05-12T06:33:33.367Z,12.20
2018-05-12T06:34:35.808Z,10.63
2018-05-12T06:35:38.317Z,6.53
2018-05-12T06:36:40.802Z,6.13
2018-05-12T06:37:43.297Z,8.47
2018-05-12T06:38:45.792Z,17.40
2018-05-12T06:39:48.298Z,9.23
2018-05-12T06:40:50.845Z,8.10
2018-05-12T06:41:53.352Z,9.40
2018-05-12T06:42:55.936Z,7.83
2018-05-12T06:43:58.434Z,7.70
2018-05-12T06:45:00.925Z,6.97
2018-05-12T06:46:03.439Z,6.73
2018-05-12T06:47:05.938Z,7.63
2018-05-12T06:48:08.410Z,6.70
2018-05-12T06:49:10.892Z,6.60
2018-05-12T06:50:13.368Z,10.90
2018-05-12T06:51:15.863Z,10.00
2018-05-12T06:52:18.354Z,6.90
2018-05-12T06:53:20.877Z,9.40
2018-05-12T06:54:23.384Z,7.60
2018-05-12T06:55:25.872Z,7.03
2018-05-12T06:56:28.366Z,8.60
2018-05-12T06:57:30.846Z,7.83
2018-05-12T06:58:33.348Z,9.50
2018-05-12T06:59:35.840Z,8.80
2018-05-12T07:00:38.323Z,11.67
2018-05-12T07:01:40.996Z,12.00
2018-05-12T07:02:43.531Z,11.10
2018-05-12T07:03:46.062Z,10.67
2018-05-12T07:04:48.558Z,8.50
2018-05-12T07:05:51.067Z,9.70
2018-05-12T07:06:53.586Z,15.37
2018-05-12T07:07:56.118Z,10.73
2018-05-12T07:08:58.620Z,10.60
2018-05-12T07:10:01.099Z,11.07
2018-05-12T07:11:03.579Z,10.13
2018-05-12T07:12:06.105Z,11.70
2018-05-12T07:13:08.596Z,8.70
2018-05-12T07:14:11.076Z,9.03
2018-05-12T07:15:13.662Z,8.80
2018-05-12T07:16:16.149Z,8.50
2018-05-12T07:17:18.682Z,8.60
2018-05-12T07:18:21.234Z,9.10
2018-05-12T07:19:23.801Z,10.23
2018-05-12T07:20:26.251Z,10.83
2018-05-12T07:21:28.748Z,7.90
2018-05-12T07:22:31.287Z,10.43
2018-05-12T07:23:33.790Z,10.33
2018-05-12T07:24:36.258Z,8.73
2018-05-12T07:25:38.731Z,9.43
2018-05-12T07:26:41.234Z,7.30
2018-05-12T07:27:43.730Z,9.03
2018-05-12T07:28:46.241Z,6.50
2018-05-12T07:29:48.751Z,9.37
2018-05-12T07:30:51.350Z,6.50
2018-05-12T07:31:53.832Z,6.00
2018-05-12T07:32:56.351Z,9.10
2018-05-12T07:33:58.822Z,9.23
2018-05-12T07:35:01.323Z,9.70
2018-05-12T07:36:03.810Z,8.40
2018-05-12T07:37:06.324Z,7.60
2018-05-12T07:38:08.839Z,6.10
2018-05-12T07:39:11.329Z,7.27
2018-05-12T07:40:13.807Z,5.17
2018-05-12T07:41:16.274Z,9.27
2018-05-12T07:42:18.778Z,7.60
2018-05-12T07:43:21.297Z,7.43
2018-05-12T07:44:23.762Z,7.27
2018-05-12T07:45:26.291Z,10.10
2018-05-12T07:46:28.770Z,10.63
2018-05-12T07:47:31.302Z,8.97
2018-05-12T07:48:33.789Z,5.63
2018-05-12T07:49:36.301Z,7.53
2018-05-12T07:50:38.803Z,5.33
2018-05-12T07:51:41.311Z,5.67
2018-05-12T07:52:43.833Z,5.83
2018-05-12T07:53:46.319Z,6.20
2018-05-12T07:54:48.812Z,10.13
2018-05-12T07:55:51.387Z,9.43
2018-05-12T07:56:53.901Z,5.20
2018-05-12T07:57:56.329Z,5.50
2018-05-12T07:58:58.802Z,5.67
2018-05-12T08:00:01.270Z,7.17
2018-05-12T08:01:03.760Z,6.83
2018-05-12T08:02:06.288Z,6.10
2018-05-12T08:03:08.796Z,8.87
2018-05-12T08:04:11.299Z,8.17
2018-05-12T08:05:13.785Z,5.50
2018-05-12T08:06:16.273Z,7.23
2018-05-12T08:07:18.746Z,10.20
2018-05-12T08:08:21.262Z,7.03
2018-05-12T08:09:23.783Z,5.83
2018-05-12T08:10:26.263Z,5.70
2018-05-12T08:11:28.744Z,5.20
2018-05-12T08:12:31.242Z,6.43
2018-05-12T08:13:33.794Z,5.10
2018-05-12T08:14:36.280Z,4.83
2018-05-12T08:15:39.219Z,5.77
2018-05-12T08:16:41.714Z,5.77
2018-05-12T08:17:44.222Z,5.23
2018-05-12T08:18:46.755Z,6.57
2018-05-12T08:19:49.318Z,4.50
2018-05-12T08:20:51.790Z,6.97
2018-05-12T08:21:54.330Z,5.43
2018-05-12T08:22:56.808Z,5.50
2018-05-12T08:23:59.320Z,6.60
2018-05-12T08:25:01.786Z,4.83
2018-05-12T08:26:04.341Z,4.47
2018-05-12T08:27:06.827Z,5.27
2018-05-12T08:28:09.327Z,9.27
2018-05-12T08:29:11.827Z,5.87
2018-05-12T08:30:14.331Z,5.30
2018-05-12T08:31:16.824Z,5.27
2018-05-12T08:32:19.309Z,5.57
2018-05-12T08:33:21.781Z,4.60
2018-05-12T08:34:24.303Z,5.00
2018-05-12T08:35:26.776Z,4.43
2018-05-12T08:36:29.257Z,5.43
2018-05-12T08:37:32.009Z,5.37
2018-05-12T08:38:34.495Z,5.17
2018-05-12T08:39:36.992Z,5.23
2018-05-12T08:40:39.462Z,6.30
2018-05-12T08:41:41.927Z,4.93
2018-05-12T08:42:44.399Z,5.50
2018-05-12T08:43:46.867Z,5.33
2018-05-12T08:44:49.390Z,6.60
2018-05-12T08:45:51.871Z,5.27
2018-05-12T08:46:54.379Z,4.87
2018-05-12T08:47:56.951Z,4.80
2018-05-12T08:48:59.458Z,6.70
2018-05-12T08:50:01.963Z,5.27
2018-05-12T08:51:04.452Z,5.40
2018-05-12T08:52:06.928Z,5.33
2018-05-12T08:53:09.437Z,5.27
2018-05-12T08:54:11.926Z,4.60
2018-05-12T08:55:14.508Z,4.37
2018-05-12T08:56:16.969Z,5.03
2018-05-12T08:57:19.480Z,4.77
2018-05-12T08:58:21.968Z,4.90
2018-05-12T08:59:24.477Z,5.17
2018-05-12T09:00:26.961Z,6.90
2018-05-12T09:01:29.493Z,4.60
2018-05-12T09:02:31.979Z,4.00
2018-05-12T09:03:34.470Z,5.10
2018-05-12T09:04:36.988Z,4.73
2018-05-12T09:05:39.551Z,4.60
2018-05-12T09:06:42.040Z,4.83
2018-05-12T09:07:44.567Z,4.60
2018-05-12T09:08:47.591Z,4.50
2018-05-12T09:09:50.105Z,4.27
2018-05-12T09:10:52.615Z,4.10
2018-05-12T09:11:55.108Z,4.40
2018-05-12T09:12:57.597Z,13.23
2018-05-12T09:14:00.088Z,6.00
2018-05-12T09:15:02.620Z,9.77
2018-05-12T09:16:05.120Z,5.00
2018-05-12T09:17:07.628Z,5.27
2018-05-12T09:18:10.121Z,4.53
2018-05-12T09:19:12.686Z,7.00
2018-05-12T09:20:15.186Z,4.97
2018-05-12T09:21:17.673Z,7.63
2018-05-12T09:22:20.151Z,5.87
2018-05-12T09:23:22.634Z,9.93
2018-05-12T09:24:25.130Z,5.33
2018-05-12T09:25:27.656Z,4.50
2018-05-12T09:26:30.152Z,4.67
2018-05-12T09:27:32.641Z,4.73
2018-05-12T09:28:35.153Z,5.30
2018-05-12T09:29:37.720Z,4.83
2018-05-12T09:30:40.275Z,4.37
2018-05-12T09:31:42.837Z,4.83
2018-05-12T09:32:45.321Z,7.37
2018-05-12T09:33:47.832Z,4.93
2018-05-12T09:34:50.340Z,5.77
2018-05-12T09:35:52.850Z,4.63
2018-05-12T09:36:55.327Z,4.60
2018-05-12T09:37:57.817Z,6.40
2018-05-12T09:39:00.339Z,4.33
2018-05-12T09:40:02.836Z,5.10
2018-05-12T09:41:05.345Z,7.50
2018-05-12T09:42:07.837Z,4.30
2018-05-12T09:43:10.328Z,9.93
2018-05-12T09:44:12.837Z,5.87
2018-05-12T09:45:15.328Z,6.10
2018-05-12T09:46:17.838Z,4.37
2018-05-12T09:47:20.339Z,4.60
2018-05-12T09:48:22.821Z,5.23
2018-05-12T09:49:25.410Z,8.20
2018-05-12T09:50:27.925Z,4.43
2018-05-12T09:51:30.435Z,6.37
2018-05-12T09:52:32.964Z,6.67
2018-05-12T09:53:35.434Z,5.40
2018-05-12T09:54:37.912Z,4.73
2018-05-12T09:55:40.405Z,5.53
2018-05-12T09:56:42.958Z,5.73
2018-05-12T09:57:45.506Z,4.90
2018-05-12T09:58:48.064Z,4.80
2018-05-12T09:59:50.627Z,5.10
2018-05-12T10:00:53.102Z,4.10
2018-05-12T10:01:55.586Z,4.50
2018-05-12T10:02:58.081Z,4.47
2018-05-12T10:04:00.643Z,4.73
2018-05-12T10:05:03.090Z,6.80
2018-05-12T10:06:05.659Z,5.73
2018-05-12T10:07:08.165Z,5.50
2018-05-12T10:08:10.695Z,5.80
2018-05-12T10:09:13.219Z,4.90
2018-05-12T10:10:15.757Z,5.07
2018-05-12T10:11:18.249Z,4.50
2018-05-12T10:12:20.797Z,5.80
2018-05-12T10:13:23.291Z,6.13
2018-05-12T10:14:25.876Z,5.00
2018-05-12T10:15:28.320Z,7.60
2018-05-12T10:16:30.855Z,6.10
2018-05-12T10:17:33.436Z,6.47
2018-05-12T10:18:35.984Z,6.70
2018-05-12T10:19:38.554Z,7.03
2018-05-12T10:20:41.116Z,4.43
2018-05-12T10:21:43.671Z,4.47
2018-05-12T10:22:46.180Z,5.63
2018-05-12T10:23:48.678Z,3.93
2018-05-12T10:24:51.160Z,3.90
2018-05-12T10:25:53.649Z,4.20
2018-05-12T10:26:56.167Z,5.17
2018-05-12T10:27:58.695Z,4.70
2018-05-12T10:29:01.211Z,4.63
2018-05-12T10:30:03.704Z,4.47
2018-05-12T10:31:06.204Z,4.43
2018-05-12T10:32:08.707Z,4.77
2018-05-12T10:33:11.222Z,4.53
2018-05-12T10:34:13.742Z,5.17
2018-05-12T10:35:16.243Z,3.87
2018-05-12T10:36:18.729Z,4.57
2018-05-12T10:37:21.224Z,4.33
2018-05-12T10:38:23.718Z,5.43
2018-05-12T10:39:26.206Z,4.70
2018-05-12T10:40:28.690Z,4.77
2018-05-12T10:41:31.182Z,5.00
2018-05-12T10:42:33.709Z,4.30
2018-05-12T10:43:36.206Z,5.53
2018-05-12T10:44:38.691Z,4.40
2018-05-12T10:45:41.195Z,4.30
2018-05-12T10:46:43.682Z,4.00
2018-05-12T10:47:46.176Z,4.43
2018-05-12T10:48:48.700Z,8.40
2018-05-12T10:49:51.211Z,4.03
2018-05-12T10:50:53.827Z,5.17
2018-05-12T10:51:56.383Z,4.03
2018-05-12T10:52:58.862Z,4.33
2018-05-12T10:54:01.398Z,4.57
2018-05-12T10:55:03.887Z,4.37
2018-05-12T10:56:06.389Z,7.97
2018-05-12T10:57:08.898Z,5.00
2018-05-12T10:58:11.384Z,4.80
2018-05-12T10:59:13.906Z,4.53
2018-05-12T11:00:16.403Z,4.50
2018-05-12T11:01:18.910Z,5.27
2018-05-12T11:02:21.415Z,3.97
2018-05-12T11:03:23.975Z,6.40
2018-05-12T11:04:26.489Z,4.90
2018-05-12T11:05:28.977Z,3.93
2018-05-12T11:06:31.464Z,5.13
2018-05-12T11:07:33.950Z,4.70
2018-05-12T11:08:36.440Z,5.00
2018-05-12T11:09:38.992Z,4.30
2018-05-12T11:10:41.506Z,5.40
2018-05-12T11:11:44.012Z,4.30
2018-05-12T11:12:46.482Z,4.00
2018-05-12T11:13:48.954Z,4.20
2018-05-12T11:14:51.434Z,4.03
2018-05-12T11:15:53.983Z,4.60
2018-05-12T11:16:56.437Z,5.23
2018-05-12T11:17:58.947Z,4.50
2018-05-12T11:19:01.452Z,4.63
2018-05-12T11:20:03.963Z,5.70
2018-05-12T11:21:06.459Z,4.40
2018-05-12T11:22:08.984Z,5.17
2018-05-12T11:23:11.459Z,4.80
2018-05-12T11:24:14.004Z,4.60
2018-05-12T11:25:16.521Z,4.33
2018-05-12T11:26:19.009Z,4.50
2018-05-12T11:27:21.501Z,4.30
2018-05-12T11:28:24.033Z,5.27
2018-05-12T11:29:26.522Z,4.40
2018-05-12T11:30:29.030Z,4.40
2018-05-12T11:31:31.532Z,5.50
2018-05-12T11:32:34.034Z,4.70
2018-05-12T11:33:36.530Z,4.57
2018-05-12T11:34:39.017Z,4.93
2018-05-12T11:35:41.534Z,6.10
2018-05-12T11:36:44.031Z,5.50
2018-05-12T11:37:46.507Z,5.57
2018-05-12T11:38:49.009Z,3.83
2018-05-12T11:39:51.501Z,3.90
2018-05-12T11:40:54.032Z,4.07
2018-05-12T11:41:56.506Z,8.03
2018-05-12T11:42:58.997Z,4.37
2018-05-12T11:44:01.471Z,4.27
2018-05-12T11:45:03.974Z,5.43
2018-05-12T11:46:06.467Z,11.43
2018-05-12T11:47:08.953Z,5.30
2018-05-12T11:48:11.453Z,40.17
2018-05-12T11:49:13.967Z,17.60
2018-05-12T11:50:16.468Z,18.33
2018-05-12T11:51:19.040Z,21.23
2018-05-12T11:52:21.532Z,20.27
2018-05-12T11:53:24.021Z,13.37
2018-05-12T11:54:26.537Z,14.60
2018-05-12T11:55:29.032Z,20.90
2018-05-12T11:56:31.605Z,15.70
2018-05-12T11:57:34.117Z,16.53
2018-05-12T11:58:36.641Z,17.30
2018-05-12T11:59:39.160Z,46.27
2018-05-12T12:00:41.645Z,22.53
2018-05-12T12:01:44.149Z,18.87
2018-05-12T12:02:46.626Z,18.37
2018-05-12T12:03:49.136Z,18.33
2018-05-12T12:04:51.680Z,42.73
2018-05-12T12:05:54.191Z,98.90
2018-05-12T12:06:56.700Z,45.33
2018-05-12T12:07:59.193Z,46.27
2018-05-12T12:09:01.671Z,50.03
2018-05-12T12:10:04.179Z,51.50
2018-05-12T12:11:06.693Z,44.83
2018-05-12T12:12:09.226Z,42.80
2018-05-12T12:13:11.725Z,45.03
2018-05-12T12:14:14.224Z,41.97
2018-05-12T12:15:16.713Z,36.00
2018-05-12T12:16:19.195Z,40.23
2018-05-12T12:17:21.780Z,35.63
2018-05-12T12:18:24.289Z,37.93
2018-05-12T12:19:26.810Z,29.37
2018-05-12T12:20:29.306Z,31.37
2018-05-12T12:21:31.816Z,37.07
2018-05-12T12:22:34.330Z,26.97
2018-05-12T12:23:36.823Z,31.33
2018-05-12T12:24:39.298Z,31.97
2018-05-12T12:25:41.807Z,26.07
2018-05-12T12:26:44.303Z,32.80
2018-05-12T12:27:46.793Z,25.00
2018-05-12T12:28:49.311Z,17.20
2018-05-12T12:29:51.822Z,26.17
2018-05-12T12:30:54.313Z,29.30
2018-05-12T12:31:56.801Z,26.67
2018-05-12T12:32:59.296Z,23.67
2018-05-12T12:34:01.811Z,23.33
2018-05-12T12:35:04.335Z,14.13
2018-05-12T12:36:06.842Z,21.63
2018-05-12T12:37:09.342Z,17.37
2018-05-12T12:38:11.853Z,16.73
2018-05-12T12:39:14.719Z,18.30
2018-05-12T12:40:17.231Z,26.63
2018-05-12T12:41:19.763Z,25.30
2018-05-12T12:42:22.325Z,19.20
2018-05-12T12:43:24.836Z,20.47
2018-05-12T12:44:27.345Z,21.57
2018-05-12T12:45:29.849Z,19.13
2018-05-12T12:46:32.330Z,17.90
2018-05-12T12:47:34.808Z,16.37
2018-05-12T12:48:37.321Z,12.67
2018-05-12T12:49:39.833Z,14.03
2018-05-12T12:50:42.324Z,19.70
2018-05-12T12:51:44.852Z,16.20
2018-05-12T12:52:47.334Z,13.30
2018-05-12T12:53:49.853Z,18.73
2018-05-12T12:54:52.326Z,14.13
2018-05-12T12:55:54.833Z,15.20
2018-05-12T12:56:57.311Z,20.80
2018-05-12T12:57:59.816Z,16.63
2018-05-12T12:59:02.330Z,18.43
2018-05-12T13:00:04.818Z,19.50
2018-05-12T13:01:07.327Z,21.40
2018-05-12T13:02:09.822Z,15.17
2018-05-12T13:03:12.339Z,14.00
2018-05-12T13:04:14.885Z,13.33
2018-05-12T13:05:17.380Z,14.50
2018-05-12T13:06:19.873Z,18.57
2018-05-12T13:07:22.387Z,13.00
2018-05-12T13:08:24.885Z,20.17
2018-05-12T13:09:27.379Z,16.23
2018-05-12T13:10:29.909Z,12.10
2018-05-12T13:11:32.390Z,12.10
2018-05-12T13:12:34.886Z,18.33
2018-05-12T13:13:37.385Z,11.67
2018-05-12T13:14:39.886Z,17.00
2018-05-12T13:15:42.389Z,18.40
2018-05-12T13:16:44.858Z,10.53
2018-05-12T13:17:47.367Z,16.37
2018-05-12T13:18:49.838Z,13.87
2018-05-12T13:19:52.335Z,8.93
2018-05-12T13:20:54.806Z,8.20
2018-05-12T13:21:57.312Z,10.70
2018-05-12T13:22:59.810Z,13.37
2018-05-12T13:24:02.372Z,11.53
2018-05-12T13:25:04.929Z,15.50
2018-05-12T13:26:07.437Z,11.20
2018-05-12T13:27:09.949Z,13.10
2018-05-12T13:28:12.436Z,13.57
2018-05-12T13:29:14.937Z,14.90
2018-05-12T13:30:17.435Z,10.30
2018-05-12T13:31:19.910Z,11.33
2018-05-12T13:32:22.451Z,11.17
2018-05-12T13:33:24.962Z,10.93
2018-05-12T13:34:27.472Z,9.23
2018-05-12T13:35:30.019Z,10.40
2018-05-12T13:36:32.585Z,12.03
2018-05-12T13:37:35.065Z,12.17
2018-05-12T13:38:37.597Z,10.03
2018-05-12T13:39:40.100Z,8.57
2018-05-12T13:40:42.600Z,8.60
2018-05-12T13:41:45.089Z,9.00
2018-05-12T13:42:47.635Z,11.30
2018-05-12T13:43:50.193Z,12.27
2018-05-12T13:44:52.699Z,9.27
2018-05-12T13:45:55.213Z,7.23
2018-05-12T13:46:57.725Z,7.77
2018-05-12T13:48:00.201Z,7.20
2018-05-12T13:49:02.759Z,10.77
2018-05-12T13:50:05.266Z,6.03